createdAt,value
2024-01-12T00:00:47.825Z,40.40
2024-01-12T00:05:49.573Z,37.75
2024-01-12T00:10:51.171Z,44.60
2024-01-12T00:15:52.771Z,42.00
2024-01-12T00:20:54.476Z,46.35
2024-01-12T00:26:00.208Z,47.78
2024-01-12T00:31:02.014Z,44.00
2024-01-12T00:36:03.721Z,44.35
2024-01-12T00:41:05.297Z,52.83
2024-01-12T00:46:06.858Z,43.38
2024-01-12T00:51:11.916Z,42.33
2024-01-12T00:56:14.346Z,39.65
2024-01-12T01:01:15.939Z,44.92
2024-01-12T01:06:17.797Z,38.88
2024-01-12T01:11:19.419Z,44.05
2024-01-12T01:16:21.220Z,38.70
2024-01-12T01:21:22.788Z,38.58
2024-01-12T01:26:24.373Z,43.42
2024-01-12T01:31:26.385Z,42.67
2024-01-12T01:36:27.959Z,47.85
2024-01-12T01:41:29.541Z,41.80
2024-01-12T01:46:31.151Z,49.50
2024-01-12T01:51:32.796Z,46.78
2024-01-12T01:56:34.408Z,43.17
2024-01-12T02:01:35.975Z,43.92
2024-01-12T02:06:38.056Z,43.25
2024-01-12T02:11:39.716Z,44.42
2024-01-12T02:16:41.434Z,44.08
2024-01-12T02:21:42.983Z,44.03
2024-01-12T02:26:44.578Z,50.47
2024-01-12T02:31:46.329Z,47.33
2024-01-12T02:36:47.863Z,51.03
2024-01-12T02:41:49.442Z,49.13
2024-01-12T02:46:51.172Z,45.92
2024-01-12T02:51:52.857Z,45.42
2024-01-12T02:56:54.604Z,49.22
2024-01-12T03:01:56.210Z,50.10
2024-01-12T03:06:57.762Z,48.53
2024-01-12T03:11:59.465Z,54.10
2024-01-12T03:17:01.584Z,57.25
2024-01-12T03:22:03.192Z,56.70
2024-01-12T03:27:05.399Z,52.60
2024-01-12T03:32:07.117Z,57.78
2024-01-12T03:37:09.064Z,61.35
2024-01-12T03:42:12.101Z,78.80
2024-01-12T03:47:13.750Z,70.53
2024-01-12T03:52:16.612Z,68.07
2024-01-12T03:57:18.385Z,64.15
2024-01-12T04:02:20.082Z,77.57
2024-01-12T04:07:21.783Z,75.90
2024-01-12T04:12:23.376Z,76.40
2024-01-12T04:17:24.980Z,63.15
2024-01-12T04:22:26.681Z,61.25
2024-01-12T04:27:29.482Z,60.80
2024-01-12T04:32:31.167Z,67.70
2024-01-12T04:37:32.774Z,60.47
2024-01-12T04:42:34.539Z,58.80
2024-01-12T04:47:36.232Z,61.05
2024-01-12T04:52:37.863Z,50.75
2024-01-12T04:57:39.578Z,58.42
2024-01-12T05:02:41.638Z,60.05
2024-01-12T05:07:43.359Z,66.15
2024-01-12T05:12:44.960Z,63.20
2024-01-12T05:17:46.602Z,58.80
2024-01-12T05:22:48.723Z,69.43
2024-01-12T05:27:50.346Z,75.95
2024-01-12T05:32:52.150Z,74.70
2024-01-12T05:37:53.830Z,72.88
2024-01-12T05:42:55.439Z,73.03
2024-01-12T05:47:57.031Z,75.72
2024-01-12T05:52:59.009Z,71.80
2024-01-12T05:58:00.721Z,70.50
2024-01-12T06:03:02.367Z,72.57
2024-01-12T06:08:04.125Z,69.15
2024-01-12T06:13:05.703Z,71.57
2024-01-12T06:18:07.609Z,75.55
2024-01-12T06:23:09.318Z,87.28
2024-01-12T06:28:11.950Z,85.43
2024-01-12T06:33:15.627Z,91.38
2024-01-12T06:38:17.512Z,105.90
2024-01-12T06:43:19.134Z,108.70
2024-01-12T06:48:21.811Z,93.78
2024-01-12T06:53:23.546Z,91.10
2024-01-12T06:58:25.094Z,88.03
2024-01-12T07:03:26.775Z,102.82
2024-01-12T07:08:28.468Z,110.70
2024-01-12T07:13:30.116Z,102.32
2024-01-12T07:18:31.877Z,94.78
2024-01-12T07:23:33.594Z,103.82
2024-01-12T07:28:35.204Z,100.60
2024-01-12T07:33:37.235Z,87.32
2024-01-12T07:38:38.883Z,92.13
2024-01-12T07:43:40.988Z,91.53
2024-01-12T07:48:42.704Z,82.20
2024-01-12T07:53:44.445Z,87.22
2024-01-12T07:58:46.635Z,80.93
2024-01-12T08:03:48.509Z,73.82
2024-01-12T08:08:50.241Z,85.00
2024-01-12T08:13:51.842Z,79.82
2024-01-12T08:18:53.449Z,89.90
2024-01-12T08:23:55.518Z,102.82
2024-01-12T08:29:02.534Z,100.35
2024-01-12T08:34:04.247Z,100.63
2024-01-12T08:39:06.261Z,85.70
2024-01-12T08:44:08.084Z,95.85
2024-01-12T08:49:09.839Z,86.25
2024-01-12T08:54:11.705Z,97.20
2024-01-12T08:59:13.304Z,96.78
2024-01-12T09:04:15.148Z,87.95
2024-01-12T09:09:17.646Z,62.42
2024-01-12T09:14:19.346Z,63.33
2024-01-12T09:19:21.060Z,71.07
2024-01-12T09:24:22.707Z,50.22
2024-01-12T09:29:24.349Z,47.22
2024-01-12T09:34:26.063Z,34.75
2024-01-12T09:39:28.232Z,51.72
2024-01-12T09:44:30.611Z,50.40
2024-01-12T09:49:32.534Z,41.67
2024-01-12T09:54:34.878Z,41.42
2024-01-12T09:59:36.908Z,44.20
2024-01-12T10:04:38.721Z,44.55
2024-01-12T10:09:41.110Z,39.47
2024-01-12T10:14:42.743Z,36.63
2024-01-12T10:19:45.082Z,37.85
2024-01-12T10:24:46.880Z,33.72
2024-01-12T10:29:48.497Z,40.10
2024-01-12T10:34:50.701Z,46.22
2024-01-12T10:39:52.356Z,48.92
2024-01-12T10:44:54.045Z,41.90
2024-01-12T10:50:02.945Z,35.80
2024-01-12T10:55:06.137Z,41.97
2024-01-12T11:00:09.702Z,41.72
2024-01-12T11:05:11.970Z,38.47
2024-01-12T11:10:13.763Z,32.38
2024-01-12T11:15:15.539Z,34.80
2024-01-12T11:20:21.124Z,29.38
2024-01-12T11:25:22.992Z,27.00
2024-01-12T11:30:26.431Z,28.67
2024-01-12T11:35:30.215Z,32.40
2024-01-12T11:40:34.402Z,28.35
2024-01-12T11:45:40.789Z,29.27
2024-01-12T11:50:43.003Z,31.15
2024-01-12T11:55:44.589Z,35.28
2024-01-12T12:00:49.958Z,29.20
2024-01-12T12:05:51.875Z,30.88
2024-01-12T12:10:53.826Z,34.28
2024-01-12T12:15:56.241Z,23.25
2024-01-12T12:20:58.922Z,25.17
2024-01-12T12:26:00.866Z,32.13
2024-01-12T12:31:03.344Z,32.15
2024-01-12T12:36:09.715Z,25.50
2024-01-12T12:41:12.796Z,29.88
2024-01-12T12:46:14.449Z,26.55
2024-01-12T12:51:16.112Z,26.23
2024-01-12T12:56:17.713Z,24.00
2024-01-12T13:01:19.278Z,28.27
2024-01-12T13:06:20.937Z,21.70
2024-01-12T13:11:22.510Z,26.35
2024-01-12T13:16:24.120Z,31.75
2024-01-12T13:21:25.964Z,69.68
2024-01-12T13:26:27.784Z,28.90
2024-01-12T13:31:29.358Z,29.50
2024-01-12T13:36:30.981Z,25.73
2024-01-12T13:41:32.612Z,29.10
2024-01-12T13:46:34.252Z,25.92
2024-01-12T13:51:35.998Z,29.45
2024-01-12T13:56:37.592Z,25.05
2024-01-12T14:01:39.295Z,34.03
2024-01-12T14:06:41.564Z,28.52
2024-01-12T14:11:43.329Z,30.38
2024-01-12T14:16:44.914Z,27.55
2024-01-12T14:21:46.454Z,30.25
2024-01-12T14:26:48.506Z,26.02
2024-01-12T14:31:50.113Z,28.40
2024-01-12T14:36:51.733Z,28.95
2024-01-12T14:41:53.866Z,31.65
2024-01-12T14:46:55.465Z,32.85
2024-01-12T14:51:57.425Z,31.52
2024-01-12T14:56:59.046Z,45.47
2024-01-12T15:02:00.605Z,30.95
2024-01-12T15:07:02.789Z,38.25
2024-01-12T15:12:07.288Z,36.88
2024-01-12T15:17:09.248Z,37.25
2024-01-12T15:22:10.852Z,37.97
2024-01-12T15:27:12.547Z,40.42
2024-01-12T15:32:14.196Z,34.67
2024-01-12T15:37:15.818Z,40.47
2024-01-12T15:42:17.428Z,41.78
2024-01-12T15:47:19.040Z,41.28
2024-01-12T15:52:20.600Z,43.08
2024-01-12T15:57:22.304Z,43.92
2024-01-12T16:02:24.563Z,40.72
2024-01-12T16:07:26.751Z,42.20
2024-01-12T16:12:28.455Z,47.15
2024-01-12T16:17:30.263Z,47.85
2024-01-12T16:22:31.927Z,46.92
2024-01-12T16:27:33.491Z,45.10
2024-01-12T16:32:35.475Z,46.78
2024-01-12T16:37:37.212Z,42.67
2024-01-12T16:42:38.853Z,56.10
2024-01-12T16:47:40.503Z,50.88
2024-01-12T16:52:42.130Z,58.42
2024-01-12T16:57:43.673Z,51.22
2024-01-12T17:02:45.323Z,55.55
2024-01-12T17:07:47.900Z,48.65
2024-01-12T17:12:49.442Z,48.33
2024-01-12T17:17:51.068Z,50.50
2024-01-12T17:22:52.655Z,53.55
2024-01-12T17:27:54.248Z,54.45
2024-01-12T17:32:56.898Z,48.65
2024-01-12T17:38:25.583Z,48.80
2024-01-12T17:43:46.042Z,46.22
2024-01-12T17:48:47.832Z,47.22
2024-01-12T17:53:50.799Z,66.75
2024-01-12T17:58:52.507Z,46.42
2024-01-12T18:03:54.080Z,42.30
2024-01-12T18:08:57.758Z,43.88
2024-01-12T18:13:59.459Z,48.72
2024-01-12T18:19:01.319Z,48.97
2024-01-12T18:24:04.207Z,51.47
2024-01-12T18:29:05.809Z,40.50
2024-01-12T18:34:07.509Z,112.15
2024-01-12T18:39:09.264Z,128.88
2024-01-12T18:44:11.885Z,121.30
2024-01-12T18:49:15.813Z,41.30
2024-01-12T18:54:19.437Z,47.72
2024-01-12T18:59:21.148Z,116.97
2024-01-12T19:04:23.762Z,72.43
2024-01-12T19:09:25.346Z,72.63
2024-01-12T19:14:26.941Z,58.83
2024-01-12T19:19:28.672Z,81.53
2024-01-12T19:24:30.315Z,77.03
2024-01-12T19:29:33.869Z,74.40
2024-01-12T19:34:50.056Z,83.50
2024-01-12T19:39:51.693Z,117.13
2024-01-12T19:44:53.396Z,101.60
2024-01-12T19:49:55.000Z,121.00
2024-01-12T19:54:56.535Z,84.10
2024-01-12T19:59:58.127Z,96.40
2024-01-12T20:05:00.275Z,59.25
2024-01-12T20:10:02.433Z,53.78
2024-01-12T20:15:05.355Z,56.35
2024-01-12T20:20:08.414Z,48.90
2024-01-12T20:25:10.274Z,72.45
2024-01-12T20:30:12.693Z,78.32
2024-01-12T20:35:14.548Z,113.03
2024-01-12T20:40:16.142Z,48.58
2024-01-12T20:45:18.038Z,46.10
2024-01-12T20:50:19.894Z,64.53
2024-01-12T20:55:21.451Z,43.92
2024-01-12T21:00:23.290Z,98.40
2024-01-12T21:05:25.653Z,150.02
2024-01-12T21:10:27.413Z,72.60
2024-01-12T21:15:31.609Z,151.95
2024-01-12T21:20:33.260Z,69.82
2024-01-12T21:25:34.862Z,79.22
2024-01-12T21:30:36.504Z,111.95
2024-01-12T21:35:38.146Z,137.63
2024-01-12T21:40:39.863Z,75.90
2024-01-12T21:45:41.758Z,69.65
2024-01-12T21:50:43.407Z,84.80
2024-01-12T21:55:45.046Z,85.90
2024-01-12T22:00:46.653Z,84.55
2024-01-12T22:05:48.398Z,69.85
2024-01-12T22:10:50.092Z,107.38
2024-01-12T22:15:51.717Z,56.83
2024-01-12T22:20:53.864Z,111.43
2024-01-12T22:25:55.530Z,57.72
2024-01-12T22:30:57.184Z,66.95
2024-01-12T22:35:58.777Z,56.65
2024-01-12T22:41:00.373Z,71.45
2024-01-12T22:46:02.295Z,61.88
2024-01-12T22:51:04.159Z,59.95
2024-01-12T22:56:05.929Z,57.13
2024-01-12T23:01:07.513Z,77.07
2024-01-12T23:06:10.441Z,74.38
2024-01-12T23:11:12.045Z,80.75
2024-01-12T23:16:13.673Z,63.35
2024-01-12T23:21:15.334Z,70.72
2024-01-12T23:26:17.029Z,71.18
2024-01-12T23:31:18.768Z,68.00
2024-01-12T23:36:21.857Z,64.70
2024-01-12T23:41:31.039Z,66.97
2024-01-12T23:46:32.941Z,64.55
2024-01-12T23:51:34.502Z,53.38
2024-01-12T23:56:36.099Z,60.17
